New York, NY

10:22 AM EDT on October 21, 2014 (GMT -0400)
Central Park | Change Station
CLOSE
Current Station
Airport
Location: Central Park,
Elevation: 154 ft
Nearby Weather Stations

Elev 154 ft 40.78 °N, 73.97 °W | Updated 31 minutes ago

Partly Cloudy
Partly Cloudy
61 °F
Feels Like 61 °F
N
0
Wind Variable Wind from North

Today
High -- | Low -- °F
--% Chance of Precip.
Yesterday
High -- | Low -- °F
Precip. -- in
7:13 AM 6:06 PM
Waning Crescent, 5% visible
Pressure 29.89 in
Visibility 10.0 miles
Clouds Scattered Clouds 5500 ft
Scattered Clouds 7000 ft
Dew Point 45 °F
Humidity 56%
Rainfall 0.00 in
Snow Depth Not available.
UV 2 out of 12
Pollen .70 out of 12
Ozone Good
PM2.5 Moderate
Flu Activity Sporadic
METAR KNYC 211351Z AUTO 00000KT 10SM SCT055 SCT070 16/07 A2992 RMK AO2 SLP122 T01610072 $

More Conditions Fewer Conditions

Pressure 29.89 in
Visibility 10.0 miles
Clouds Scattered Clouds 5500 ft
Scattered Clouds 7000 ft
Dew Point 45 °F
Humidity 56%
Rainfall 0.00 in
Snow Depth Not available.
UV 2 out of 12
Pollen .70 out of 12
Ozone Good
PM2.5 Moderate
Flu Activity Sporadic
METAR KNYC 211351Z AUTO 00000KT 10SM SCT055 SCT070 16/07 A2992 RMK AO2 SLP122 T01610072 $

More Conditions Fewer Conditions

10-Day Weather Forecast

Almanac

Astronomy

Oct. 21, 2014 Rise Set
Actual Time 7:13 AM EDT 6:06 PM EDT
Civil Twilight 6:45 AM EDT 6:34 PM EDT
Nautical Twilight 6:13 AM EDT 7:06 PM EDT
Astronomical Twilight 5:42 AM EDT 7:38 PM EDT
Moon 4:54 AM EDT 5:00 PM EDT
Length of Visible Light 11h 48m
Length of Day
10h 53m
Tomorrow will be 2m 32s shorter.
Waning Crescent, 5% of the Moon is Illuminated
Today
Waning Crescent
Oct 23
New
Oct 30
First Quarter
Nov 6
Full
Nov 14
Last Quarter

Today's Extremes

State Highs State Lows

Community

WunderPhotos

Upload Photos

1,763,676 photos uploaded!

Nearby

Air Quality

  Air Quality AQ Index Pollutant
Yesterday Good
OZONE
Yesterday Good
PM2.5
Current Moderate
PM2.5
Current Good
OZONE
Tuesday Good
PM2.5

Snow Depth

Station Depth Elevation
No new snow has been reported.

Earthquake Activity

City Distance Mag. Time & Date
No recent earthquake activity has been reported nearby.
Minimum magnitude displayed is 2.5.

Coastal Water Temperatures

Place Temperature
Sandy Hook, NJ 60.1 °F
The Battery, NY 63.0 °F
Bergen Point West Reach, NJ 62.1 °F

Nearby Weather Stations